Time;durP1;ratioP1;P1;durP2;ratioP2;P2;SDS_P1;SDS_P2;PMS_P1;PMS_P2;Temp;Humidity;BMP_temperature;BMP_pressure;BME280_temperature;BME280_humidity;BME280_pressure;Samples;Min_cycle;Max_cycle;Signal;HPM_P1;HPM_P2
2021/11/19 00:01:45;;;;;;;21.27;11.23;;;;;;;10.39;100.00;102789.59;4993738;28;20080;-45
2021/11/19 00:04:13;;;;;;;25.95;13.00;;;;;;;10.38;100.00;102782.47;4994102;28;20042;-47
2021/11/19 00:06:42;;;;;;;32.15;12.20;;;;;;;10.39;100.00;102785.00;4994079;28;20038;-48
2021/11/19 00:09:10;;;;;;;25.00;12.25;;;;;;;10.39;100.00;102779.56;4994825;28;20041;-48
2021/11/19 00:11:40;;;;;;;24.70;13.32;;;;;;;10.37;100.00;102778.94;4994065;28;20046;-46
2021/11/19 00:14:09;;;;;;;22.35;11.63;;;;;;;10.39;100.00;102786.88;4993317;28;20065;-49
2021/11/19 00:16:40;;;;;;;22.70;11.40;;;;;;;10.38;100.00;102785.22;4993499;28;20046;-47
2021/11/19 00:19:08;;;;;;;22.35;12.65;;;;;;;10.39;100.00;102784.13;4994965;28;20050;-48
2021/11/19 00:21:38;;;;;;;28.30;12.93;;;;;;;10.37;100.00;102784.38;4980343;28;20425;-50
2021/11/19 00:24:07;;;;;;;25.02;12.27;;;;;;;10.38;100.00;102782.47;4993359;28;20038;-47
2021/11/19 00:26:35;;;;;;;20.40;11.95;;;;;;;10.38;100.00;102777.03;4993283;28;20050;-48
2021/11/19 00:29:03;;;;;;;23.33;12.40;;;;;;;10.38;100.00;102785.22;4992959;28;20054;-49
2021/11/19 00:31:32;;;;;;;23.13;12.02;;;;;;;10.36;100.00;102785.41;4993186;28;20038;-46
2021/11/19 00:34:00;;;;;;;24.08;12.50;;;;;;;10.38;100.00;102782.47;4992388;28;20493;-45
2021/11/19 00:36:30;;;;;;;24.75;13.57;;;;;;;10.38;100.00;102780.59;4993145;28;20499;-45
2021/11/19 00:39:01;;;;;;;26.20;13.57;;;;;;;10.38;100.00;102777.88;4993313;28;20125;-46
2021/11/19 00:41:30;;;;;;;19.85;11.40;;;;;;;10.40;100.00;102772.19;4993877;28;20044;-44
2021/11/19 00:43:58;;;;;;;28.33;14.55;;;;;;;10.39;100.00;102778.69;4993225;28;20670;-44
2021/11/19 00:46:25;;;;;;;23.80;12.23;;;;;;;10.39;100.00;102767.78;4992492;28;20042;-44
2021/11/19 00:48:53;;;;;;;24.75;14.40;;;;;;;10.37;100.00;102769.94;4993361;28;20042;-44
2021/11/19 00:51:24;;;;;;;24.02;13.55;;;;;;;10.40;100.00;102769.47;4994249;28;20046;-48
2021/11/19 00:53:55;;;;;;;23.02;13.75;;;;;;;10.39;100.00;102773.25;4993015;28;20042;-44
2021/11/19 00:56:26;;;;;;;24.98;12.88;;;;;;;10.39;100.00;102779.56;4992860;28;20042;-49
2021/11/19 00:58:54;;;;;;;23.35;13.95;;;;;;;10.41;100.00;102771.13;4991444;28;20046;-48
2021/11/19 01:01:35;;;;;;;22.02;13.48;;;;;;;10.42;100.00;102781.00;4993721;28;20489;-48
2021/11/19 01:04:05;;;;;;;24.88;14.63;;;;;;;10.43;100.00;102777.22;4992646;28;20041;-49
2021/11/19 01:06:35;;;;;;;24.02;14.00;;;;;;;10.40;100.00;102785.81;4991749;28;20495;-48
2021/11/19 01:09:08;;;;;;;24.67;14.35;;;;;;;10.40;100.00;102780.38;4991809;28;20501;-49
2021/11/19 01:11:36;;;;;;;27.58;14.73;;;;;;;10.39;100.00;102778.69;5003671;28;20037;-48
2021/11/19 01:14:06;;;;;;;25.48;14.90;;;;;;;10.39;100.00;102792.31;4994431;28;20043;-48
2021/11/19 01:16:42;;;;;;;22.58;14.38;;;;;;;10.39;100.00;102786.88;4993099;28;20053;-47
2021/11/19 01:19:15;;;;;;;23.73;14.30;;;;;;;10.39;100.00;102795.03;4991454;28;20133;-47
2021/11/19 01:21:46;;;;;;;23.20;13.48;;;;;;;10.39;100.00;102806.81;5019012;28;20043;-48
2021/11/19 01:24:15;;;;;;;25.60;14.68;;;;;;;10.39;100.00;102798.63;4991637;28;20042;-46
2021/11/19 01:26:44;;;;;;;23.55;14.10;;;;;;;10.39;100.00;102803.22;4977641;28;20066;-50
2021/11/19 01:29:14;;;;;;;26.13;14.40;;;;;;;10.40;100.00;102807.63;4991047;28;20051;-48
2021/11/19 01:31:52;;;;;;;25.65;15.18;;;;;;;10.41;100.00;102812.00;4992123;28;20097;-49
2021/11/19 01:34:49;;;;;;;22.40;13.80;;;;;;;10.40;100.00;102813.09;4992348;28;20057;-45
2021/11/19 01:37:38;;;;;;;20.05;13.50;;;;;;;10.40;100.00;102818.53;4991806;28;20053;-48
2021/11/19 01:40:18;;;;;;;22.98;14.75;;;;;;;10.40;100.00;102807.63;4992361;28;20201;-48
2021/11/19 01:43:04;;;;;;;21.95;13.60;;;;;;;10.44;100.00;102804.25;4991183;28;20054;-46
2021/11/19 01:45:39;;;;;;;31.98;15.57;;;;;;;10.43;100.00;102791.66;4991415;28;20104;-48
2021/11/19 01:48:10;;;;;;;26.58;16.48;;;;;;;10.42;100.00;102790.00;4989972;28;20038;-45
2021/11/19 01:50:44;;;;;;;24.10;17.02;;;;;;;10.44;100.00;102789.81;4993934;28;20121;-48
2021/11/19 01:53:17;;;;;;;24.17;14.93;;;;;;;10.44;100.00;102782.44;4994965;28;20042;-48
2021/11/19 01:56:05;;;;;;;26.55;15.88;;;;;;;10.45;100.00;102791.47;4995936;28;20046;-48
2021/11/19 01:58:41;;;;;;;25.27;16.98;;;;;;;10.43;100.00;102797.13;4994962;28;20134;-44
2021/11/19 02:01:30;;;;;;;24.80;17.05;;;;;;;10.43;100.00;102796.28;4997337;28;20047;-48
2021/11/19 02:04:04;;;;;;;29.48;18.10;;;;;;;10.42;100.00;102795.47;4994909;28;20055;-45
2021/11/19 02:06:42;;;;;;;27.90;17.05;;;;;;;10.43;100.00;102782.66;4995114;28;20121;-48
2021/11/19 02:09:54;;;;;;;25.73;17.88;;;;;;;10.44;100.00;102792.53;4998203;28;20049;-48
2021/11/19 02:12:28;;;;;;;26.70;16.85;;;;;;;10.44;100.00;102785.19;4977139;28;20501;-49
2021/11/19 02:15:14;;;;;;;23.98;16.52;;;;;;;10.45;100.00;102778.66;4994871;28;20137;-48
2021/11/19 02:17:44;;;;;;;;;;;;;;;10.46;100.00;102774.03;4995133;28;20046;-49
2021/11/19 02:20:15;;;;;;;26.27;16.58;;;;;;;10.45;100.00;102773.22;4979921;28;19922;-50
2021/11/19 02:22:52;;;;;;;29.02;17.20;;;;;;;10.47;100.00;102778.44;4994699;28;20038;-45
2021/11/19 02:25:30;;;;;;;26.15;17.88;;;;;;;10.45;100.00;102777.81;4994693;28;20559;-47
2021/11/19 02:28:02;;;;;;;29.02;18.50;;;;;;;10.45;100.00;102773.22;4994236;28;20057;-47
2021/11/19 02:30:54;;;;;;;28.75;19.10;;;;;;;10.46;100.00;102784.94;4994684;28;20074;-48
2021/11/19 02:33:24;;;;;;;24.77;17.25;;;;;;;10.48;100.00;102776.56;4994590;28;20065;-49
2021/11/19 02:36:00;;;;;;;23.83;17.42;;;;;;;10.47;100.00;102773.00;5011276;28;20437;-50
2021/11/19 02:38:36;;;;;;;22.05;14.70;;;;;;;10.48;100.00;102771.09;4994543;28;20038;-48
2021/11/19 02:41:06;;;;;;;22.58;17.77;;;;;;;10.49;100.00;102761.88;4994230;28;20042;-47
2021/11/19 02:43:42;;;;;;;26.90;17.65;;;;;;;10.49;100.00;102761.88;4994213;28;20489;-45
2021/11/19 02:46:33;;;;;;;23.52;16.90;;;;;;;10.50;100.00;102761.66;4995707;28;20081;-46
2021/11/19 02:49:03;;;;;;;24.02;17.67;;;;;;;10.49;100.00;102770.91;5015122;28;20050;-46
2021/11/19 02:51:34;;;;;;;21.52;15.23;;;;;;;10.51;100.00;102768.78;5016324;28;20042;-50
2021/11/19 02:54:08;;;;;;;25.13;17.65;;;;;;;10.53;100.00;102761.19;4999757;28;20050;-49
2021/11/19 02:56:38;;;;;;;27.60;19.05;;;;;;;10.54;100.00;102765.63;4996335;28;20049;-48
2021/11/19 02:59:08;;;;;;;30.48;19.27;;;;;;;10.53;100.00;102769.38;4994315;28;20046;-47
2021/11/19 03:01:53;;;;;;;23.17;18.27;;;;;;;10.55;100.00;102763.72;4993906;28;20121;-48
2021/11/19 03:04:32;;;;;;;29.60;20.52;;;;;;;10.54;100.00;102768.34;4954802;28;20047;-48
2021/11/19 03:07:00;;;;;;;27.63;18.40;;;;;;;10.55;100.00;102761.00;4966477;28;20091;-47
2021/11/19 03:09:43;;;;;;;28.40;21.58;;;;;;;10.53;100.00;102774.00;4957166;28;20414;-47
2021/11/19 03:12:13;;;;;;;27.73;18.10;;;;;;;10.52;100.00;102761.44;4953669;28;20054;-47
2021/11/19 03:14:43;;;;;;;34.97;23.15;;;;;;;10.52;100.00;102761.44;4957289;28;20055;-48
2021/11/19 03:17:13;;;;;;;33.03;22.73;;;;;;;10.52;100.00;102761.44;4954703;28;20130;-47
2021/11/19 03:19:42;;;;;;;28.70;21.70;;;;;;;10.52;100.00;102767.72;4964418;28;20039;-46
2021/11/19 03:22:11;;;;;;;28.83;20.95;;;;;;;10.53;100.00;102765.81;4977184;28;20050;-48
2021/11/19 03:24:40;;;;;;;29.42;21.50;;;;;;;10.54;100.00;102773.78;4994361;28;20075;-48
2021/11/19 03:27:10;;;;;;;21.77;16.95;;;;;;;10.54;100.00;102760.16;4994412;28;20121;-48
2021/11/19 03:29:45;;;;;;;30.73;21.17;;;;;;;10.55;100.00;102759.09;4993346;28;20062;-44
2021/11/19 03:32:16;;;;;;;26.90;20.20;;;;;;;10.55;100.00;102759.09;4993425;28;20468;-47
2021/11/19 03:34:45;;;;;;;27.42;20.98;;;;;;;10.56;100.00;102766.22;4993714;28;20375;-47
2021/11/19 03:37:13;;;;;;;26.08;21.27;;;;;;;10.57;100.00;102764.34;4994020;28;20050;-48
2021/11/19 03:39:41;;;;;;;32.40;23.10;;;;;;;10.56;100.00;102763.50;4994276;28;20031;-47
2021/11/19 03:42:10;;;;;;;31.10;22.98;;;;;;;10.57;100.00;102764.34;4993201;28;20137;-46
2021/11/19 03:44:46;;;;;;;23.73;18.10;;;;;;;10.59;100.00;102757.59;5010841;28;20052;-47
2021/11/19 03:47:22;;;;;;;30.65;22.00;;;;;;;10.60;100.00;102770.16;4993116;28;20069;-47
2021/11/19 03:49:52;;;;;;;32.47;24.65;;;;;;;10.59;100.00;102771.25;4997483;28;20156;-48
2021/11/19 03:52:30;;;;;;;27.45;20.65;;;;;;;10.58;100.00;102766.00;4992714;28;20054;-45
2021/11/19 03:55:01;;;;;;;31.58;20.83;;;;;;;10.58;100.00;102774.16;4993127;28;20050;-45
2021/11/19 03:57:30;;;;;;;28.40;23.38;;;;;;;10.59;100.00;102762.22;5003643;28;20081;-47
2021/11/19 04:00:11;;;;;;;29.27;20.92;;;;;;;10.59;100.00;102762.22;4994106;28;20498;-50
2021/11/19 04:02:40;;;;;;;27.75;20.27;;;;;;;10.60;100.00;102758.44;4994022;28;20042;-48
2021/11/19 04:05:09;;;;;;;27.02;21.40;;;;;;;10.61;100.00;102769.13;5009943;28;20050;-48
2021/11/19 04:07:36;;;;;;;31.85;23.17;;;;;;;10.59;100.00;102768.50;4992730;28;20413;-48
2021/11/19 04:10:06;;;;;;;29.27;22.23;;;;;;;10.61;100.00;102768.31;4992202;28;20096;-48
2021/11/19 04:12:34;;;;;;;25.50;18.42;;;;;;;10.60;100.00;102759.25;4993007;28;20105;-48
2021/11/19 04:15:05;;;;;;;32.17;21.65;;;;;;;10.61;100.00;102766.41;4993415;28;20038;-48
2021/11/19 04:17:33;;;;;;;30.20;22.08;;;;;;;10.60;100.00;102759.25;4992640;28;20413;-48
2021/11/19 04:20:01;;;;;;;26.13;19.48;;;;;;;10.62;100.00;102761.78;5008504;28;20584;-45
2021/11/19 04:22:29;;;;;;;31.83;22.33;;;;;;;10.61;100.00;102765.56;5008783;28;20814;-46
2021/11/19 04:25:00;;;;;;;27.33;20.92;;;;;;;10.62;100.00;102772.69;4993507;28;20053;-48
2021/11/19 04:27:32;;;;;;;29.42;21.65;;;;;;;10.62;100.00;102773.50;4993069;28;20146;-48
2021/11/19 04:30:20;;;;;;;28.23;20.05;;;;;;;10.62;100.00;102778.97;4992242;28;20086;-48
2021/11/19 04:32:50;;;;;;;29.15;22.63;;;;;;;10.62;100.00;102769.97;4992307;28;20101;-47
2021/11/19 04:35:20;;;;;;;24.25;18.58;;;;;;;10.62;100.00;102769.97;5008658;28;20050;-48
2021/11/19 04:37:48;;;;;;;26.38;20.50;;;;;;;10.63;100.00;102758.84;5009215;28;20050;-48
2021/11/19 04:40:17;;;;;;;26.52;19.80;;;;;;;10.64;100.00;102770.59;4999117;28;20046;-47
2021/11/19 04:42:46;;;;;;;26.27;18.80;;;;;;;10.64;100.00;102765.97;4992202;28;20089;-47
2021/11/19 04:45:20;;;;;;;22.02;17.65;;;;;;;10.64;100.00;102760.50;4993386;28;20042;-46
2021/11/19 04:47:48;;;;;;;28.98;18.70;;;;;;;10.65;100.00;102767.66;4991675;28;20539;-48
2021/11/19 04:50:18;;;;;;;25.23;18.90;;;;;;;10.64;100.00;102765.13;4993257;28;20046;-48
2021/11/19 04:52:46;;;;;;;27.48;18.70;;;;;;;10.62;100.00;102765.34;4991706;28;20553;-47
2021/11/19 04:55:14;;;;;;;29.60;19.00;;;;;;;10.64;100.00;102765.13;4993337;28;20038;-47
2021/11/19 04:57:42;;;;;;;25.15;19.05;;;;;;;10.62;100.00;102757.16;5008937;28;20046;-48
2021/11/19 05:00:19;;;;;;;24.13;18.35;;;;;;;10.62;100.00;102756.34;4991745;28;20401;-48
2021/11/19 05:03:08;;;;;;;23.60;17.55;;;;;;;10.63;100.00;102763.44;4932594;29;20558;-47
2021/11/19 05:05:38;;;;;;;26.42;18.10;;;;;;;10.63;100.00;102768.88;4942392;29;20095;-46
2021/11/19 05:08:07;;;;;;;26.23;19.38;;;;;;;10.63;100.00;102774.34;4916771;29;20073;-47
2021/11/19 05:10:37;;;;;;;29.52;18.90;;;;;;;10.63;100.00;102780.66;4932894;29;20044;-46
2021/11/19 05:13:06;;;;;;;26.00;17.95;;;;;;;10.63;100.00;102769.75;4933007;29;20056;-44
2021/11/19 05:15:41;;;;;;;29.15;17.75;;;;;;;10.63;100.00;102775.22;4932596;29;20054;-49
2021/11/19 05:18:10;;;;;;;23.30;16.90;;;;;;;10.64;100.00;102774.13;4916687;29;20051;-47
2021/11/19 05:20:38;;;;;;;24.45;16.08;;;;;;;10.64;100.00;102779.59;4932329;29;20191;-47
2021/11/19 05:23:07;;;;;;;25.48;18.75;;;;;;;10.65;100.00;102784.00;4937124;29;20441;-48
2021/11/19 05:25:39;;;;;;;26.73;19.13;;;;;;;10.64;100.00;102779.59;4933784;29;20143;-46
2021/11/19 05:28:08;;;;;;;21.08;16.10;;;;;;;10.65;100.00;102778.56;4932308;29;20052;-46
2021/11/19 05:30:38;;;;;;;27.80;18.45;;;;;;;10.64;100.00;102779.59;4944256;29;20047;-48
2021/11/19 05:33:09;;;;;;;20.00;14.82;;;;;;;10.66;100.00;102763.03;4948192;29;20060;-48
2021/11/19 05:35:37;;;;;;;24.58;18.70;;;;;;;10.65;100.00;102767.66;4932127;29;20048;-48
2021/11/19 05:38:06;;;;;;;26.08;18.23;;;;;;;10.66;100.00;102780.22;4932165;29;20051;-44
2021/11/19 05:40:35;;;;;;;25.08;17.63;;;;;;;10.66;100.00;102779.38;4969587;28;20047;-48
2021/11/19 05:43:04;;;;;;;22.17;17.88;;;;;;;10.66;100.00;102769.31;4991432;28;20061;-47
2021/11/19 05:45:47;;;;;;;27.35;18.33;;;;;;;10.65;100.00;102777.69;4991061;28;20046;-49
2021/11/19 05:48:26;;;;;;;27.33;19.20;;;;;;;10.66;100.00;102769.31;4991913;28;20408;-48
2021/11/19 05:50:53;;;;;;;23.92;17.77;;;;;;;10.65;100.00;102767.66;4991190;28;20113;-47
2021/11/19 05:53:26;;;;;;;27.73;18.42;;;;;;;10.65;100.00;102759.47;5007700;28;20051;-48
2021/11/19 05:55:53;;;;;;;27.50;19.30;;;;;;;10.65;100.00;102758.59;4990892;28;20077;-48
2021/11/19 05:58:22;;;;;;;26.52;18.75;;;;;;;10.64;100.00;102760.50;5008509;28;20513;-48
2021/11/19 06:01:01;;;;;;;26.58;19.73;;;;;;;10.63;100.00;102769.75;4990985;28;20070;-48
2021/11/19 06:03:40;;;;;;;20.73;15.15;;;;;;;10.66;100.00;102768.47;4990715;28;20141;-45
2021/11/19 06:06:25;;;;;;;23.90;17.50;;;;;;;10.68;100.00;102774.53;4986716;28;20184;-47
2021/11/19 06:09:19;;;;;;;27.45;20.00;;;;;;;10.68;100.00;102776.41;4989259;28;20474;-49
2021/11/19 06:11:52;;;;;;;21.98;14.93;;;;;;;10.73;100.00;102769.25;4991372;28;20050;-49
2021/11/19 06:14:24;;;;;;;29.92;20.73;;;;;;;10.71;100.00;102770.53;4991046;28;20050;-47
2021/11/19 06:16:58;;;;;;;29.75;19.95;;;;;;;10.70;100.00;102785.22;4990996;28;20105;-48
2021/11/19 06:19:30;;;;;;;26.52;18.25;;;;;;;10.71;100.00;102776.00;4983813;28;20532;-48
2021/11/19 06:22:13;;;;;;;20.05;13.10;;;;;;;10.75;100.00;102772.59;4963712;28;20528;-45
2021/11/19 06:24:44;;;;;;;16.13;10.23;;;;;;;10.78;100.00;102774.88;4991595;28;20062;-48
2021/11/19 06:27:22;;;;;;;16.70;11.23;;;;;;;10.81;100.00;102781.78;4988662;28;20045;-49
2021/11/19 06:29:52;;;;;;;28.02;20.50;;;;;;;10.83;100.00;102790.59;4987724;28;20088;-49
2021/11/19 06:32:21;;;;;;;26.25;19.80;;;;;;;10.79;100.00;102784.72;4989604;28;20042;-47
2021/11/19 06:34:49;;;;;;;24.40;16.35;;;;;;;10.77;100.00;102786.00;4990330;28;20417;-49
2021/11/19 06:37:17;;;;;;;29.40;20.75;;;;;;;10.74;100.00;102792.72;4993588;28;20061;-47
2021/11/19 06:40:08;;;;;;;26.63;20.10;;;;;;;10.73;100.00;102780.16;4994996;28;20562;-48
2021/11/19 06:43:00;;;;;;;37.00;21.10;;;;;;;10.74;100.00;102778.28;4994750;28;20042;-48
2021/11/19 06:46:00;;;;;;;23.92;16.50;;;;;;;10.75;100.00;102793.56;4994487;28;20537;-48
2021/11/19 06:48:54;;;;;;;23.80;15.95;;;;;;;10.79;100.00;102789.34;4993631;28;20042;-50
2021/11/19 06:51:40;;;;;;;;;;;;;;;10.81;100.00;102792.69;4989325;28;20129;-49
2021/11/19 06:54:26;;;;;;;30.17;21.40;;;;;;;10.77;100.00;102797.72;4993745;28;20022;-46
2021/11/19 06:57:09;;;;;;;32.63;22.33;;;;;;;10.76;100.00;102806.16;4993414;28;20045;-48
2021/11/19 06:59:40;;;;;;;25.63;18.02;;;;;;;10.84;100.00;102808.59;5009517;28;20054;-45
2021/11/19 07:02:09;;;;;;;27.20;20.40;;;;;;;10.80;100.00;102807.34;4301797;28;10000741;-48
2021/11/19 07:04:38;;;;;;;29.65;19.83;;;;;;;10.80;100.00;102801.91;4993302;28;20108;-48
2021/11/19 07:07:07;;;;;;;24.83;19.58;;;;;;;10.81;100.00;102812.59;4975404;28;20101;-48
2021/11/19 07:09:40;;;;;;;29.58;20.80;;;;;;;10.78;100.00;102820.41;4991292;28;20154;-49
2021/11/19 07:12:11;;;;;;;31.52;21.65;;;;;;;10.79;100.00;102822.06;4990250;28;20049;-47
2021/11/19 07:14:46;;;;;;;29.00;19.70;;;;;;;10.79;100.00;102822.06;4990784;28;20406;-46
2021/11/19 07:17:15;;;;;;;29.33;23.20;;;;;;;10.77;100.00;102825.00;5006971;28;20042;-48
2021/11/19 07:19:44;;;;;;;29.88;21.60;;;;;;;10.78;100.00;102825.84;5007304;28;20370;-49
2021/11/19 07:22:12;;;;;;;24.27;16.65;;;;;;;10.81;100.00;102825.41;4991882;28;20035;-47
2021/11/19 07:24:43;;;;;;;29.95;20.25;;;;;;;10.80;100.00;102837.34;5006335;28;20568;-45
2021/11/19 07:27:14;;;;;;;29.70;21.38;;;;;;;10.80;100.00;102831.91;4989769;28;20489;-46
2021/11/19 07:29:43;;;;;;;28.00;17.98;;;;;;;10.82;100.00;102835.25;4989734;28;20081;-45
2021/11/19 07:32:29;;;;;;;22.63;17.65;;;;;;;10.81;100.00;102834.41;4991549;28;20053;-44
2021/11/19 07:35:18;;;;;;;29.38;21.75;;;;;;;10.81;100.00;102836.31;4990268;28;20649;-49
2021/11/19 07:38:06;;;;;;;28.27;21.35;;;;;;;10.81;100.00;102836.31;4991870;28;20124;-49
2021/11/19 07:40:54;;;;;;;30.42;22.48;;;;;;;10.81;100.00;102833.59;4981466;28;20054;-49
2021/11/19 07:43:52;;;;;;;30.67;22.13;;;;;;;10.81;100.00;102844.50;4957392;28;20070;-46
2021/11/19 07:46:31;;;;;;;25.08;16.42;;;;;;;10.88;100.00;102842.56;4950288;29;20470;-51
2021/11/19 07:49:05;;;;;;;31.50;20.98;;;;;;;10.85;100.00;102838.38;4949252;28;20449;-48
2021/11/19 07:51:37;;;;;;;25.20;19.48;;;;;;;10.88;100.00;102848.03;4952740;28;20085;-50
2021/11/19 07:54:06;;;;;;;29.40;21.15;;;;;;;10.86;100.00;102848.22;4964025;28;20059;-49
2021/11/19 07:56:35;;;;;;;27.13;18.95;;;;;;;10.85;100.00;102859.38;4948174;28;20055;-49
2021/11/19 07:59:15;;;;;;;30.13;20.95;;;;;;;10.84;100.00;102857.69;4948794;29;20547;-51
2021/11/19 08:01:44;;;;;;;28.52;21.80;;;;;;;10.83;100.00;102856.84;4930744;29;20660;-46
2021/11/19 08:04:13;;;;;;;30.25;21.27;;;;;;;10.82;100.00;102859.78;4944394;29;20067;-47
2021/11/19 08:06:44;;;;;;;32.25;21.90;;;;;;;10.82;100.00;102860.66;4936407;29;20048;-45
2021/11/19 08:09:31;;;;;;;31.30;21.75;;;;;;;10.83;100.00;102866.94;4944444;29;20051;-48
2021/11/19 08:12:07;;;;;;;29.13;20.17;;;;;;;10.85;100.00;102870.28;4952202;28;20451;-47
2021/11/19 08:14:35;;;;;;;26.75;18.08;;;;;;;10.88;100.00;102867.09;4952614;29;20089;-45
2021/11/19 08:17:15;;;;;;;24.55;18.13;;;;;;;10.90;100.00;102870.47;4952515;29;20094;-47
2021/11/19 08:19:47;;;;;;;23.70;17.98;;;;;;;10.93;100.00;102861.81;4952755;28;20057;-48
2021/11/19 08:22:16;;;;;;;23.50;17.05;;;;;;;10.92;100.00;102876.53;4998396;28;20050;-53
2021/11/19 08:24:45;;;;;;;28.30;17.00;;;;;;;10.93;100.00;102870.00;4998670;28;20145;-52
2021/11/19 08:27:17;;;;;;;26.20;18.52;;;;;;;10.93;100.00;102878.19;4996280;28;20049;-52
2021/11/19 08:29:48;;;;;;;27.17;18.38;;;;;;;10.94;100.00;102871.66;4992721;28;20054;-49
2021/11/19 08:32:17;;;;;;;24.55;18.17;;;;;;;10.95;100.00;102865.19;4992649;28;20242;-48
2021/11/19 08:34:45;;;;;;;27.65;19.33;;;;;;;10.97;100.00;102870.41;4992281;28;20050;-50
2021/11/19 08:37:13;;;;;;;25.15;18.52;;;;;;;10.98;100.00;102863.91;4992648;28;20038;-53
2021/11/19 08:39:40;;;;;;;22.70;17.23;;;;;;;10.99;100.00;102860.97;4992060;28;20058;-48
2021/11/19 08:42:09;;;;;;;27.75;19.10;;;;;;;10.98;100.00;102856.53;4991029;28;20050;-48
2021/11/19 08:44:41;;;;;;;30.55;19.42;;;;;;;11.02;100.00;102856.94;4990071;28;20053;-49
2021/11/19 08:47:24;;;;;;;25.45;18.15;;;;;;;11.04;100.00;102863.00;5003856;28;20038;-49
2021/11/19 08:49:52;;;;;;;25.50;18.60;;;;;;;11.03;100.00;102864.91;4991537;28;20061;-48
2021/11/19 08:52:21;;;;;;;26.35;18.67;;;;;;;11.03;100.00;102870.34;5006076;28;20046;-46
2021/11/19 08:54:50;;;;;;;26.60;17.65;;;;;;;11.07;100.00;102870.75;4990134;28;20409;-49
2021/11/19 08:57:21;;;;;;;24.08;18.52;;;;;;;11.08;100.00;102865.06;4989891;28;20050;-49
2021/11/19 08:59:50;;;;;;;21.75;16.50;;;;;;;11.11;100.00;102862.94;4989849;28;20053;-46
2021/11/19 09:02:20;;;;;;;27.17;19.80;;;;;;;11.12;100.00;102861.91;4989043;28;20046;-47
2021/11/19 09:05:00;;;;;;;26.75;19.98;;;;;;;11.16;100.00;102865.84;4990043;28;20120;-48
2021/11/19 09:07:31;;;;;;;34.70;18.33;;;;;;;11.25;100.00;102862.63;4989962;28;20069;-48
2021/11/19 09:10:00;;;;;;;28.40;18.50;;;;;;;11.31;100.00;102863.66;4991047;28;20093;-49
2021/11/19 09:12:31;;;;;;;29.20;19.92;;;;;;;11.29;100.00;102863.88;4990753;28;20046;-49
2021/11/19 09:14:58;;;;;;;32.58;19.27;;;;;;;11.32;100.00;102859.03;4992401;28;20046;-48
2021/11/19 09:17:30;;;;;;;39.47;18.60;;;;;;;11.33;100.00;102860.69;4991874;28;20034;-46
2021/11/19 09:20:04;;;;;;;35.70;19.25;;;;;;;11.31;100.00;102860.91;4991044;28;20038;-49
2021/11/19 09:22:56;;;;;;;45.08;19.42;;;;;;;11.35;100.00;102856.66;4978406;28;20142;-48
2021/11/19 09:25:24;;;;;;;30.60;16.77;;;;;;;11.54;100.00;102871.19;5006409;28;20402;-47
2021/11/19 09:28:04;;;;;;;32.05;15.18;;;;;;;11.73;100.00;102867.44;4989829;28;20052;-46
2021/11/19 09:30:37;;;;;;;27.13;16.27;;;;;;;11.83;100.00;102875.13;5005009;28;20050;-48
2021/11/19 09:33:11;;;;;;;27.42;17.90;;;;;;;11.75;100.00;102877.31;4991310;28;20141;-47
2021/11/19 09:35:40;;;;;;;26.90;18.50;;;;;;;11.61;100.00;102873.88;4991438;28;20046;-47
2021/11/19 09:38:09;;;;;;;23.55;15.52;;;;;;;11.52;100.00;102876.91;4991740;28;20134;-48
2021/11/19 09:40:40;;;;;;;24.77;17.45;;;;;;;11.50;100.00;102873.56;4991210;28;20050;-48
2021/11/19 09:43:47;;;;;;;22.42;16.13;;;;;;;11.43;100.00;102880.97;4991132;28;20149;-47
2021/11/19 09:46:33;;;;;;;28.58;17.60;;;;;;;11.39;100.00;102877.00;4990665;28;20038;-50
2021/11/19 09:49:39;;;;;;;32.30;17.88;;;;;;;11.45;100.00;102884.31;4990926;28;20058;-48
2021/11/19 09:52:50;;;;;;;25.95;16.38;;;;;;;11.42;100.00;102881.19;4941550;28;20430;-49
2021/11/19 09:55:21;;;;;;;26.05;17.92;;;;;;;11.40;100.00;102881.41;4934058;29;20251;-50
2021/11/19 09:57:57;;;;;;;26.98;17.65;;;;;;;11.42;100.00;102875.72;4946149;28;20059;-49
2021/11/19 10:00:31;;;;;;;28.33;16.67;;;;;;;11.47;100.00;102874.00;4928654;28;20536;-49
2021/11/19 10:03:29;;;;;;;26.58;17.08;;;;;;;11.44;100.00;102873.59;4949624;28;20077;-50
2021/11/19 10:06:33;;;;;;;27.52;16.15;;;;;;;11.48;100.00;102874.84;4942554;28;20067;-49
2021/11/19 10:09:09;;;;;;;21.38;15.02;;;;;;;11.48;100.00;102872.94;4949440;28;20054;-49
2021/11/19 10:11:42;;;;;;;24.88;16.80;;;;;;;11.50;100.00;102884.47;4931778;29;20105;-49
2021/11/19 10:14:29;;;;;;;24.20;15.57;;;;;;;11.51;100.00;102886.13;4937353;29;20065;-51
2021/11/19 10:17:05;;;;;;;27.60;16.80;;;;;;;11.58;100.00;102891.53;4953905;28;20664;-50
2021/11/19 10:19:41;;;;;;;26.33;14.68;;;;;;;11.59;100.00;102884.19;4267009;28;10000505;-48
2021/11/19 10:22:14;;;;;;;24.83;16.45;;;;;;;11.58;100.00;102877.88;4950583;28;20434;-48
2021/11/19 10:25:07;;;;;;;22.00;15.27;;;;;;;11.64;100.00;102881.59;4950180;28;20514;-48
2021/11/19 10:27:44;;;;;;;21.13;14.32;;;;;;;11.69;100.00;102879.06;4934127;29;20446;-48
2021/11/19 10:30:28;;;;;;;;;;;;;;;11.76;100.00;102884.44;4986089;28;20501;-47
2021/11/19 10:33:03;;;;;;;17.85;12.73;;;;;;;11.75;100.00;102874.59;4984740;28;19921;-49
2021/11/19 10:35:52;;;;;;;23.98;14.95;;;;;;;11.72;100.00;102879.44;4989631;28;20085;-49
2021/11/19 10:38:57;;;;;;;24.60;13.90;;;;;;;11.82;100.00;102880.81;4991875;28;20133;-49
2021/11/19 10:42:00;;;;;;;20.52;12.93;;;;;;;11.76;100.00;102876.25;4991202;28;20493;-48
2021/11/19 10:44:37;;;;;;;20.98;13.05;;;;;;;11.76;100.00;102882.56;4990227;28;20752;-48
2021/11/19 10:47:04;;;;;;;21.83;12.40;;;;;;;11.70;100.00;102875.25;4992036;28;20054;-48
2021/11/19 10:50:03;;;;;;;22.40;15.23;;;;;;;11.70;100.00;102872.53;4990129;28;20858;-50
2021/11/19 10:53:08;;;;;;;21.67;14.88;;;;;;;11.69;100.00;102871.69;5004242;28;20039;-51
2021/11/19 10:55:57;;;;;;;21.92;13.07;;;;;;;11.78;100.00;102874.13;4984656;28;20425;-48
2021/11/19 10:58:42;;;;;;;20.05;13.30;;;;;;;11.82;100.00;102878.09;4989013;28;20038;-49
2021/11/19 11:01:47;;;;;;;19.17;13.27;;;;;;;11.78;100.00;102869.50;5001420;28;20050;-49
2021/11/19 11:04:28;;;;;;;20.92;11.80;;;;;;;11.82;100.00;102873.47;4990921;28;20046;-49
2021/11/19 11:07:25;;;;;;;21.70;12.27;;;;;;;11.82;100.00;102870.72;4990828;28;20046;-48
2021/11/19 11:09:57;;;;;;;19.70;12.40;;;;;;;11.86;100.00;102866.50;4984086;28;20054;-49
2021/11/19 11:12:46;;;;;;;19.10;12.50;;;;;;;11.85;100.00;102864.81;4987771;28;20042;-49
2021/11/19 11:15:14;;;;;;;18.95;11.52;;;;;;;11.86;100.00;102865.66;4988454;28;20073;-49
2021/11/19 11:18:09;;;;;;;17.63;11.45;;;;;;;11.85;100.00;102867.53;4991529;28;20073;-51
2021/11/19 11:20:43;;;;;;;19.87;11.60;;;;;;;11.88;100.00;102875.31;4988729;28;20497;-49
2021/11/19 11:23:47;;;;;;;19.88;13.13;;;;;;;11.83;100.00;102869.66;4989861;28;20160;-50
2021/11/19 11:26:20;;;;;;;24.85;18.42;;;;;;;11.78;100.00;102864.03;4986367;28;20058;-50
2021/11/19 11:29:16;;;;;;;33.53;19.50;;;;;;;11.75;100.00;102875.41;4989615;28;20062;-50
2021/11/19 11:31:52;;;;;;;23.95;16.27;;;;;;;11.75;100.00;102869.13;4983854;28;20042;-46
2021/11/19 11:34:29;;;;;;;22.80;17.20;;;;;;;11.73;100.00;102861.16;4996561;28;20047;-50
2021/11/19 11:37:16;;;;;;;21.73;15.65;;;;;;;11.73;100.00;102861.16;4993412;28;20049;-49
2021/11/19 11:39:47;;;;;;;20.25;14.57;;;;;;;11.71;100.00;102868.72;4980917;28;20395;-47